Time,TemperatureF,DewpointF,PressureIn,WindDirection,WindDirectionDegrees,WindSpeedMPH,WindSpeedGustMPH,Humidity,HourlyPrecipIn,Conditions,Clouds,dailyrainin,SoftwareType,DateUTC
2013-01-18 00:01:00,34.0,33.0,30.13,NNE,24,0.0,0.0,96,0.00,,,1.70,Wunderground v.1.13,2013-01-18 05:01:00,
2013-01-18 00:10:00,34.1,33.1,30.12,NNE,23,0.0,2.0,96,0.00,,,0.00,Wunderground v.1.13,2013-01-18 05:10:00,
2013-01-18 00:20:00,33.7,32.4,30.13,NNE,24,0.0,0.0,95,0.00,,,0.00,Wunderground v.1.13,2013-01-18 05:20:00,
2013-01-18 00:30:00,33.4,32.4,30.13,NNE,24,0.0,0.0,96,0.00,,,0.00,Wunderground v.1.13,2013-01-18 05:30:00,
2013-01-18 00:40:00,34.0,33.2,30.15,NNE,20,0.0,3.0,97,0.00,,,0.00,Wunderground v.1.13,2013-01-18 05:40:00,
2013-01-18 00:50:00,34.1,33.1,30.15,NNE,20,2.0,2.0,96,0.00,,,0.00,Wunderground v.1.13,2013-01-18 05:50:00,
2013-01-18 01:00:00,33.8,32.8,30.15,NNE,20,0.0,0.0,96,0.00,,,0.00,Wunderground v.1.13,2013-01-18 06:00:00,
2013-01-18 01:10:00,33.4,32.4,30.16,NNE,20,0.0,0.0,96,0.00,,,0.00,Wunderground v.1.13,2013-01-18 06:10:00,
2013-01-18 01:20:00,33.2,32.2,30.18,NNE,20,0.0,0.0,96,0.00,,,0.00,Wunderground v.1.13,2013-01-18 06:20:00,
2013-01-18 01:40:00,32.8,31.8,30.18,N/A,-737280,0.0,0.0,96,0.00,,,0.00,Wunderground v.1.13,2013-01-18 06:40:00,
2013-01-18 01:50:00,32.8,31.8,30.19,NNE,20,0.0,0.0,96,0.00,,,0.00,Wunderground v.1.13,2013-01-18 06:50:00,
2013-01-18 02:00:00,32.5,31.5,30.19,NNE,20,0.0,0.0,96,0.00,,,0.00,Wunderground v.1.13,2013-01-18 07:00:00,
2013-01-18 02:10:00,32.1,31.1,30.20,NNE,20,0.0,0.0,96,0.00,,,0.00,Wunderground v.1.13,2013-01-18 07:10:00,
2013-01-18 02:20:00,32.2,31.2,30.20,NNE,20,0.0,0.0,96,0.00,,,0.00,Wunderground v.1.13,2013-01-18 07:20:00,
2013-01-18 02:30:00,32.2,31.2,30.20,NNE,20,0.0,0.0,96,0.00,,,0.00,Wunderground v.1.13,2013-01-18 07:30:00,
2013-01-18 02:40:00,32.1,31.1,30.21,NNE,20,0.0,0.0,96,0.00,,,0.00,Wunderground v.1.13,2013-01-18 07:40:00,
2013-01-18 02:50:00,32.4,31.4,30.22,NNE,20,0.0,0.0,96,0.00,,,0.00,Wunderground v.1.13,2013-01-18 07:50:00,
2013-01-18 03:00:00,32.4,31.6,30.22,NNE,20,0.0,0.0,97,0.00,,,0.00,Wunderground v.1.13,2013-01-18 08:00:00,
2013-01-18 03:10:00,33.1,32.3,30.22,NW,317,2.0,2.0,97,0.00,,,0.00,Wunderground v.1.13,2013-01-18 08:10:00,
2013-01-18 03:20:00,33.5,32.7,30.22,NW,317,1.0,1.0,97,0.00,,,0.00,Wunderground v.1.13,2013-01-18 08:20:00,
2013-01-18 03:30:00,33.4,32.4,30.22,NW,317,0.0,0.0,96,0.00,,,0.00,Wunderground v.1.13,2013-01-18 08:30:00,
2013-01-18 03:40:00,33.5,32.5,30.23,NW,317,1.0,2.0,96,0.00,,,0.00,Wunderground v.1.13,2013-01-18 08:40:00,
2013-01-18 03:50:00,32.7,31.4,30.23,NW,317,0.0,0.0,95,0.00,,,0.00,Wunderground v.1.13,2013-01-18 08:50:00,
2013-01-18 04:00:00,32.1,30.6,30.23,NW,321,0.0,0.0,94,0.00,,,0.00,Wunderground v.1.13,2013-01-18 09:00:00,
2013-01-18 04:10:00,31.8,30.5,30.23,NW,321,0.0,0.0,95,0.00,,,0.00,Wunderground v.1.13,2013-01-18 09:10:00,
2013-01-18 04:20:00,31.6,30.3,30.23,NW,321,0.0,0.0,95,0.00,,,0.00,Wunderground v.1.13,2013-01-18 09:20:00,
2013-01-18 04:30:00,31.2,29.9,30.23,NW,321,0.0,0.0,95,0.00,,,0.00,Wunderground v.1.13,2013-01-18 09:30:00,
2013-01-18 04:40:00,31.6,30.6,30.23,NW,321,1.0,2.0,96,0.00,,,0.00,Wunderground v.1.13,2013-01-18 09:40:00,
2013-01-18 04:50:00,31.8,30.5,30.23,NW,325,3.0,3.0,95,0.00,,,0.00,Wunderground v.1.13,2013-01-18 09:50:00,
2013-01-18 05:00:00,31.9,30.4,30.23,NNW,336,4.0,4.0,94,0.00,,,0.00,Wunderground v.1.13,2013-01-18 10:00:00,
2013-01-18 05:10:00,31.9,30.1,30.23,NNW,346,3.0,3.0,93,0.00,,,0.00,Wunderground v.1.13,2013-01-18 10:10:00,
2013-01-18 05:20:00,31.9,29.8,30.24,NNW,345,1.0,4.0,92,0.00,,,0.00,Wunderground v.1.13,2013-01-18 10:20:00,
2013-01-18 05:30:00,32.4,29.8,30.24,NNW,344,2.0,2.0,90,0.00,,,0.00,Wunderground v.1.13,2013-01-18 10:30:00,
2013-01-18 05:40:00,32.2,29.3,30.25,NNW,345,1.0,2.0,89,0.00,,,0.00,Wunderground v.1.13,2013-01-18 10:40:00,
2013-01-18 05:50:00,32.1,29.2,30.25,NNW,344,2.0,2.0,89,0.00,,,0.00,Wunderground v.1.13,2013-01-18 10:50:00,
2013-01-18 06:00:00,32.4,28.7,30.25,NNW,344,2.0,3.0,86,0.00,,,0.00,Wunderground v.1.13,2013-01-18 11:00:00,
2013-01-18 06:10:00,32.5,28.8,30.25,NNW,344,2.0,3.0,86,0.00,,,0.00,Wunderground v.1.13,2013-01-18 11:10:00,
2013-01-18 06:20:00,32.4,28.4,30.26,NNW,344,1.0,1.0,85,0.00,,,0.00,Wunderground v.1.13,2013-01-18 11:20:00,
2013-01-18 06:30:00,31.9,28.2,30.26,NW,319,2.0,2.0,86,0.00,,,0.00,Wunderground v.1.13,2013-01-18 11:30:00,
2013-01-18 06:40:00,32.2,27.9,30.26,NW,319,1.0,1.0,84,0.00,,,0.00,Wunderground v.1.13,2013-01-18 11:40:00,
2013-01-18 06:50:00,31.9,28.2,30.27,NW,319,0.0,0.0,86,0.00,,,0.00,Wunderground v.1.13,2013-01-18 11:50:00,
2013-01-18 07:00:00,30.9,28.0,30.27,NW,319,0.0,0.0,89,0.00,,,0.00,Wunderground v.1.13,2013-01-18 12:00:00,
2013-01-18 07:10:00,30.7,28.1,30.28,NW,319,0.0,0.0,90,0.00,,,0.00,Wunderground v.1.13,2013-01-18 12:10:00,
2013-01-18 07:20:00,30.4,28.1,30.29,NW,319,0.0,0.0,91,0.00,,,0.00,Wunderground v.1.13,2013-01-18 12:20:00,
2013-01-18 07:30:00,30.1,27.8,30.29,NW,319,0.0,0.0,91,0.00,,,0.00,Wunderground v.1.13,2013-01-18 12:30:00,
2013-01-18 07:40:00,30.3,28.3,30.29,NW,319,0.0,0.0,92,0.00,,,0.00,Wunderground v.1.13,2013-01-18 12:40:00,
2013-01-18 07:50:00,30.6,28.0,30.30,NW,319,0.0,0.0,90,0.00,,,0.00,Wunderground v.1.13,2013-01-18 12:50:00,
2013-01-18 08:00:00,30.4,28.1,30.30,NW,319,0.0,0.0,91,0.00,,,0.00,Wunderground v.1.13,2013-01-18 13:00:00,
2013-01-18 08:10:00,30.1,28.1,30.32,NW,319,0.0,0.0,92,0.00,,,0.00,Wunderground v.1.13,2013-01-18 13:10:00,
2013-01-18 08:20:00,30.1,28.1,30.33,NW,319,0.0,0.0,92,0.00,,,0.00,Wunderground v.1.13,2013-01-18 13:20:00,
2013-01-18 08:30:00,30.1,28.1,30.33,NW,319,0.0,0.0,92,0.00,,,0.00,Wunderground v.1.13,2013-01-18 13:30:00,
2013-01-18 08:40:00,31.0,29.2,30.35,NW,319,0.0,0.0,93,0.00,,,0.00,Wunderground v.1.13,2013-01-18 13:40:00,
2013-01-18 08:50:00,31.8,29.7,30.36,NW,319,0.0,0.0,92,0.00,,,0.00,Wunderground v.1.13,2013-01-18 13:50:00,
2013-01-18 09:00:00,32.7,30.9,30.36,NW,319,0.0,0.0,93,0.00,,,0.00,Wunderground v.1.13,2013-01-18 14:00:00,
2013-01-18 09:10:00,33.5,32.0,30.37,NW,319,0.0,0.0,94,0.00,,,0.00,Wunderground v.1.13,2013-01-18 14:10:00,
2013-01-18 09:20:00,34.1,32.3,30.38,NW,319,0.0,0.0,93,0.00,,,0.00,Wunderground v.1.13,2013-01-18 14:20:00,
2013-01-18 09:30:00,35.0,32.9,30.38,NW,319,0.0,0.0,92,0.00,,,0.00,Wunderground v.1.13,2013-01-18 14:30:00,
2013-01-18 09:40:00,36.5,33.8,30.40,NW,319,0.0,0.0,90,0.00,,,0.00,Wunderground v.1.13,2013-01-18 14:40:00,
2013-01-18 09:50:00,37.8,34.0,30.41,NW,319,0.0,0.0,86,0.00,,,0.00,Wunderground v.1.13,2013-01-18 14:50:00,
2013-01-18 10:10:00,38.3,32.0,30.42,NW,315,0.0,1.0,78,0.00,,,0.00,Wunderground v.1.13,2013-01-18 15:10:00,
2013-01-18 10:20:00,40.1,32.5,30.43,North,350,1.0,1.0,74,0.00,,,0.00,Wunderground v.1.13,2013-01-18 15:20:00,
2013-01-18 10:30:00,40.9,32.2,30.43,NNW,348,1.0,2.0,71,0.00,,,0.00,Wunderground v.1.13,2013-01-18 15:30:00,
2013-01-18 10:40:00,41.9,32.5,30.43,NNE,13,1.0,1.0,69,0.00,,,0.00,Wunderground v.1.13,2013-01-18 15:40:00,
2013-01-18 10:50:00,42.6,32.8,30.43,NNW,338,3.0,3.0,68,0.00,,,0.00,Wunderground v.1.13,2013-01-18 15:50:00,
2013-01-18 11:00:00,43.2,31.8,30.43,North,355,3.0,3.0,64,0.00,,,0.00,Wunderground v.1.13,2013-01-18 16:00:00,
2013-01-18 11:10:00,43.8,32.4,30.43,North,9,2.0,4.0,64,0.00,,,0.00,Wunderground v.1.13,2013-01-18 16:10:00,
2013-01-18 11:20:00,44.2,30.8,30.43,North,355,2.0,2.0,59,0.00,,,0.00,Wunderground v.1.13,2013-01-18 16:20:00,
2013-01-18 11:30:00,44.2,31.6,30.43,NNW,342,2.0,2.0,61,0.00,,,0.00,Wunderground v.1.13,2013-01-18 16:30:00,
2013-01-18 11:40:00,44.2,31.2,30.43,NE,44,3.0,3.0,60,0.00,,,0.00,Wunderground v.1.13,2013-01-18 16:40:00,
2013-01-18 11:50:00,44.2,30.8,30.43,NNE,30,3.0,6.0,59,0.00,,,0.00,Wunderground v.1.13,2013-01-18 16:50:00,
2013-01-18 12:00:00,44.3,31.3,30.43,NE,56,3.0,3.0,60,0.00,,,0.00,Wunderground v.1.13,2013-01-18 17:00:00,
2013-01-18 12:10:00,45.1,30.3,30.42,NE,42,2.0,3.0,56,0.00,,,0.00,Wunderground v.1.13,2013-01-18 17:10:00,
2013-01-18 12:20:00,45.8,29.6,30.42,NNE,31,1.0,4.0,53,0.00,,,0.00,Wunderground v.1.13,2013-01-18 17:20:00,
2013-01-18 12:30:00,46.2,27.1,30.42,ENE,74,3.0,3.0,47,0.00,,,0.00,Wunderground v.1.13,2013-01-18 17:30:00,
2013-01-18 12:40:00,46.8,28.1,30.41,NW,320,1.0,1.0,48,0.00,,,0.00,Wunderground v.1.13,2013-01-18 17:40:00,
2013-01-18 12:50:00,47.3,27.5,30.41,North,350,2.0,4.0,46,0.00,,,0.00,Wunderground v.1.13,2013-01-18 17:50:00,
2013-01-18 13:00:00,47.6,25.6,30.41,NNW,329,2.0,2.0,42,0.00,,,0.00,Wunderground v.1.13,2013-01-18 18:00:00,
2013-01-18 13:10:00,48.2,24.4,30.41,North,355,1.0,1.0,39,0.00,,,0.00,Wunderground v.1.13,2013-01-18 18:10:00,
2013-01-18 13:20:00,47.4,23.7,30.40,NNE,26,2.0,2.0,39,0.00,,,0.00,Wunderground v.1.13,2013-01-18 18:20:00,
2013-01-18 13:30:00,48.0,24.2,30.40,SSW,192,1.0,1.0,39,0.00,,,0.00,Wunderground v.1.13,2013-01-18 18:30:00,
2013-01-18 13:40:00,48.2,23.7,30.40,NE,34,2.0,5.0,38,0.00,,,0.00,Wunderground v.1.13,2013-01-18 18:40:00,
2013-01-18 13:50:00,48.0,23.6,30.40,NNE,27,5.0,5.0,38,0.00,,,0.00,Wunderground v.1.13,2013-01-18 18:50:00,
2013-01-18 14:00:00,48.2,25.6,30.40,NNW,343,1.0,4.0,41,0.00,,,0.00,Wunderground v.1.13,2013-01-18 19:00:00,
2013-01-18 14:10:00,48.3,26.8,30.39,NNE,18,3.0,5.0,43,0.00,,,0.00,Wunderground v.1.13,2013-01-18 19:10:00,
2013-01-18 14:20:00,48.5,26.4,30.39,North,360,3.0,3.0,42,0.00,,,0.00,Wunderground v.1.13,2013-01-18 19:20:00,
2013-01-18 14:30:00,48.5,25.2,30.39,ENE,76,2.0,2.0,40,0.00,,,0.00,Wunderground v.1.13,2013-01-18 19:30:00,
2013-01-18 14:40:00,48.6,24.7,30.39,ENE,74,1.0,1.0,39,0.00,,,0.00,Wunderground v.1.13,2013-01-18 19:40:00,
2013-01-18 14:50:00,49.1,25.8,30.39,NE,41,1.0,1.0,40,0.00,,,0.00,Wunderground v.1.13,2013-01-18 19:50:00,
2013-01-18 15:00:00,48.9,22.4,30.39,North,355,3.0,5.0,35,0.00,,,0.00,Wunderground v.1.13,2013-01-18 20:00:00,
2013-01-18 15:10:00,48.9,21.7,30.39,NE,42,4.0,7.0,34,0.00,,,0.00,Wunderground v.1.13,2013-01-18 20:10:00,
2013-01-18 15:20:00,48.8,20.9,30.40,North,5,3.0,3.0,33,0.00,,,0.00,Wunderground v.1.13,2013-01-18 20:20:00,
2013-01-18 15:30:00,49.1,23.3,30.40,NE,43,0.0,0.0,36,0.00,,,0.00,Wunderground v.1.13,2013-01-18 20:30:00,
2013-01-18 15:40:00,49.4,22.9,30.39,SE,144,0.0,1.0,35,0.00,,,0.00,Wunderground v.1.13,2013-01-18 20:40:00,
2013-01-18 15:50:00,49.6,26.8,30.40,SE,145,0.0,0.0,41,0.00,,,0.00,Wunderground v.1.13,2013-01-18 20:50:00,
2013-01-18 16:00:00,49.5,22.9,30.40,SSW,196,1.0,1.0,35,0.00,,,0.00,Wunderground v.1.13,2013-01-18 21:00:00,
2013-01-18 16:10:00,49.4,24.2,30.40,East,82,0.0,0.0,37,0.00,,,0.00,Wunderground v.1.13,2013-01-18 21:10:00,
2013-01-18 16:20:00,49.1,22.6,30.40,East,86,0.0,0.0,35,0.00,,,0.00,Wunderground v.1.13,2013-01-18 21:20:00,
2013-01-18 16:30:00,48.9,22.4,30.40,NE,41,1.0,1.0,35,0.00,,,0.00,Wunderground v.1.13,2013-01-18 21:30:00,
2013-01-18 16:40:00,48.5,23.4,30.40,ENE,59,0.0,0.0,37,0.00,,,0.00,Wunderground v.1.13,2013-01-18 21:40:00,
2013-01-18 16:50:00,48.3,23.8,30.40,ENE,59,0.0,0.0,38,0.00,,,0.00,Wunderground v.1.13,2013-01-18 21:50:00,
2013-01-18 17:00:00,48.0,28.7,30.40,ENE,59,0.0,0.0,47,0.00,,,0.00,Wunderground v.1.13,2013-01-18 22:00:00,
2013-01-18 17:10:00,47.1,24.0,30.41,ENE,60,0.0,0.0,40,0.00,,,0.00,Wunderground v.1.13,2013-01-18 22:10:00,
2013-01-18 17:20:00,46.7,23.0,30.41,ENE,60,0.0,0.0,39,0.00,,,0.00,Wunderground v.1.13,2013-01-18 22:20:00,
2013-01-18 17:30:00,46.7,22.4,30.41,ENE,60,0.0,0.0,38,0.00,,,0.00,Wunderground v.1.13,2013-01-18 22:30:00,
2013-01-18 17:50:00,45.8,21.6,30.41,ENE,68,0.0,1.0,38,0.00,,,0.00,Wunderground v.1.13,2013-01-18 22:50:00,
2013-01-18 18:00:00,44.3,21.5,30.42,ENE,60,0.0,0.0,40,0.00,,,0.00,Wunderground v.1.13,2013-01-18 23:00:00,
2013-01-18 18:10:00,44.3,21.5,30.42,ENE,60,0.0,0.0,40,0.00,,,0.00,Wunderground v.1.13,2013-01-18 23:10:00,
2013-01-18 18:20:00,43.5,25.1,30.42,ENE,60,0.0,0.0,48,0.00,,,0.00,Wunderground v.1.13,2013-01-18 23:20:00,
2013-01-18 18:30:00,42.9,23.5,30.42,ENE,60,0.0,0.0,46,0.00,,,0.00,Wunderground v.1.13,2013-01-18 23:30:00,
2013-01-18 18:40:00,42.8,23.9,30.42,ENE,60,0.0,0.0,47,0.00,,,0.00,Wunderground v.1.13,2013-01-18 23:40:00,
2013-01-18 18:50:00,41.2,28.4,30.43,ENE,60,0.0,0.0,60,0.00,,,0.00,Wunderground v.1.13,2013-01-18 23:50:00,
2013-01-18 19:00:00,39.6,28.0,30.43,ENE,60,0.0,0.0,63,0.00,,,0.00,Wunderground v.1.13,2013-01-19 00:00:00,
2013-01-18 19:20:00,39.2,27.3,30.43,N/A,-737280,0.0,0.0,62,0.00,,,0.00,Wunderground v.1.13,2013-01-19 00:20:00,
2013-01-18 19:30:00,39.3,25.7,30.43,ENE,60,0.0,0.0,58,0.00,,,0.00,Wunderground v.1.13,2013-01-19 00:30:00,
2013-01-18 19:40:00,39.5,25.9,30.43,SE,139,0.0,0.0,58,0.00,,,0.00,Wunderground v.1.13,2013-01-19 00:40:00,
2013-01-18 19:50:00,39.1,26.4,30.43,SE,139,0.0,0.0,60,0.00,,,0.00,Wunderground v.1.13,2013-01-19 00:50:00,
2013-01-18 20:00:00,38.9,25.4,30.43,SE,140,0.0,0.0,58,0.00,,,0.00,Wunderground v.1.13,2013-01-19 01:00:00,
2013-01-18 20:10:00,38.6,25.5,30.43,SE,140,0.0,0.0,59,0.00,,,0.00,Wunderground v.1.13,2013-01-19 01:10:00,
2013-01-18 20:20:00,37.9,24.4,30.43,SE,140,0.0,0.0,58,0.00,,,0.00,Wunderground v.1.13,2013-01-19 01:20:00,
2013-01-18 20:30:00,37.3,25.1,30.43,SE,140,0.0,0.0,61,0.00,,,0.00,Wunderground v.1.13,2013-01-19 01:30:00,
2013-01-18 20:40:00,36.9,25.9,30.43,SE,140,0.0,0.0,64,0.00,,,0.00,Wunderground v.1.13,2013-01-19 01:40:00,
2013-01-18 20:50:00,36.5,25.5,30.43,SE,140,0.0,0.0,64,0.00,,,0.00,Wunderground v.1.13,2013-01-19 01:50:00,
2013-01-18 21:00:00,36.6,25.2,30.43,SE,140,0.0,0.0,63,0.00,,,0.00,Wunderground v.1.13,2013-01-19 02:00:00,
2013-01-18 21:10:00,36.6,26.3,30.43,SE,140,0.0,0.0,66,0.00,,,0.00,Wunderground v.1.13,2013-01-19 02:10:00,
2013-01-18 21:20:00,35.6,25.7,30.43,SE,140,0.0,0.0,67,0.00,,,0.00,Wunderground v.1.13,2013-01-19 02:20:00,
2013-01-18 21:30:00,35.3,25.8,30.43,SE,140,0.0,0.0,68,0.00,,,0.00,Wunderground v.1.13,2013-01-19 02:30:00,
2013-01-18 21:40:00,35.0,25.1,30.43,SE,140,0.0,0.0,67,0.00,,,0.00,Wunderground v.1.13,2013-01-19 02:40:00,
2013-01-18 21:50:00,34.9,25.4,30.43,SE,140,0.0,0.0,68,0.00,,,0.00,Wunderground v.1.13,2013-01-19 02:50:00,
2013-01-18 22:00:00,35.0,25.1,30.43,SE,140,0.0,0.0,67,0.00,,,0.00,Wunderground v.1.13,2013-01-19 03:00:00,
2013-01-18 22:10:00,35.0,24.8,30.43,SE,140,0.0,0.0,66,0.00,,,0.00,Wunderground v.1.13,2013-01-19 03:10:00,
2013-01-18 22:20:00,34.6,25.1,30.43,SE,140,0.0,0.0,68,0.00,,,0.00,Wunderground v.1.13,2013-01-19 03:20:00,
2013-01-18 22:30:00,33.8,25.7,30.43,SE,140,0.0,0.0,72,0.00,,,0.00,Wunderground v.1.13,2013-01-19 03:30:00,
2013-01-18 22:50:00,32.8,25.4,30.43,N/A,-737280,0.0,0.0,74,0.00,,,0.00,Wunderground v.1.13,2013-01-19 03:50:00,
2013-01-18 23:00:00,31.6,25.2,30.43,SE,140,0.0,0.0,77,0.00,,,0.00,Wunderground v.1.13,2013-01-19 04:00:00,
2013-01-18 23:10:00,31.6,24.9,30.43,SE,140,0.0,0.0,76,0.00,,,0.00,Wunderground v.1.13,2013-01-19 04:10:00,
2013-01-18 23:20:00,31.6,24.9,30.43,SE,140,0.0,0.0,76,0.00,,,0.00,Wunderground v.1.13,2013-01-19 04:20:00,
2013-01-18 23:30:00,31.3,24.9,30.43,SE,140,0.0,0.0,77,0.00,,,0.00,Wunderground v.1.13,2013-01-19 04:30:00,
2013-01-18 23:40:00,31.2,24.5,30.43,SE,140,0.0,0.0,76,0.00,,,0.00,Wunderground v.1.13,2013-01-19 04:40:00,
2013-01-18 23:50:00,30.7,24.0,30.43,SE,140,0.0,0.0,76,0.00,,,0.00,Wunderground v.1.13,2013-01-19 04:50:00,